Time;durP1;ratioP1;P1;durP2;ratioP2;P2;SDS_P1;SDS_P2;PMS_P1;PMS_P2;Temp;Humidity;BMP_temperature;BMP_pressure;BME280_temperature;BME280_humidity;BME280_pressure;Samples;Min_cycle;Max_cycle;Signal;HPM_P1;HPM_P2
2024/01/18 00:01:57;;;;;;;21.50;13.50;;;;;;;-0.84;93.44;97339.20;103496;1258;98144;-82
2024/01/18 00:04:24;;;;;;;21.70;13.00;;;;;;;-0.80;93.45;97331.89;103089;1256;111474;-81
2024/01/18 00:06:51;;;;;;;21.70;14.30;;;;;;;-0.75;93.64;97341.28;103197;1256;107312;-82
2024/01/18 00:09:19;;;;;;;23.30;15.60;;;;;;;-0.73;93.93;97337.11;103166;1256;138736;-82
2024/01/18 00:11:46;;;;;;;24.10;15.70;;;;;;;-0.72;93.83;97326.02;103247;1255;107318;-82
2024/01/18 00:14:14;;;;;;;21.90;14.30;;;;;;;-0.71;93.75;97318.29;103193;1258;138007;-81
2024/01/18 00:16:41;;;;;;;19.00;12.80;;;;;;;-0.73;93.85;97304.20;103363;1256;111097;-81
2024/01/18 00:19:10;;;;;;;20.40;13.60;;;;;;;-0.69;93.77;97307.65;103196;1257;106821;-80
2024/01/18 00:21:37;;;;;;;20.30;13.60;;;;;;;-0.67;93.96;97298.39;103485;1255;138794;-80
2024/01/18 00:24:05;;;;;;;20.50;13.80;;;;;;;-0.64;94.19;97297.40;103173;1258;105716;-80
2024/01/18 00:26:32;;;;;;;22.90;13.90;;;;;;;-0.61;94.23;97300.02;103339;1254;138702;-80
2024/01/18 00:29:00;;;;;;;22.10;12.60;;;;;;;-0.59;94.36;97309.69;102667;1256;1003583;-80
2024/01/18 00:31:27;;;;;;;20.30;13.00;;;;;;;-0.57;94.51;97309.64;103189;1255;107971;-79
2024/01/18 00:33:57;;;;;;;21.90;14.20;;;;;;;-0.54;94.78;97304.05;103252;1256;138314;-80
2024/01/18 00:36:25;;;;;;;20.60;14.00;;;;;;;-0.53;94.46;97297.20;103134;1256;107323;-78
2024/01/18 00:38:52;;;;;;;22.80;14.80;;;;;;;-0.52;94.58;97297.00;102249;1256;1003190;-79
2024/01/18 00:41:20;;;;;;;22.10;14.10;;;;;;;-0.53;94.61;97292.45;103942;1257;110727;-80
2024/01/18 00:43:48;;;;;;;20.70;13.30;;;;;;;-0.53;95.22;97303.52;103066;1258;107559;-79
2024/01/18 00:46:14;;;;;;;20.50;13.40;;;;;;;-0.53;95.29;97307.80;103010;1256;139404;-79
2024/01/18 00:48:41;;;;;;;20.90;13.30;;;;;;;-0.54;95.25;97310.04;103200;1256;106975;-80
2024/01/18 00:51:08;;;;;;;21.20;12.90;;;;;;;-0.52;95.37;97309.63;102939;1257;139665;-79
2024/01/18 00:53:35;;;;;;;17.60;12.10;;;;;;;-0.49;95.91;97312.77;103252;1256;110880;-80
2024/01/18 00:56:02;;;;;;;20.40;12.60;;;;;;;-0.47;95.82;97302.96;103074;1260;106831;-79
2024/01/18 00:58:29;;;;;;;21.50;12.60;;;;;;;-0.44;96.27;97297.23;103198;1256;98425;-80
2024/01/18 01:00:56;;;;;;;22.30;13.30;;;;;;;-0.42;96.92;97300.55;103149;1256;107515;-80
2024/01/18 01:03:23;;;;;;;18.50;12.40;;;;;;;-0.41;96.38;97290.27;103127;1256;138698;-80
2024/01/18 01:05:50;;;;;;;19.40;12.20;;;;;;;-0.38;96.41;97286.42;103125;1256;111060;-79
2024/01/18 01:08:17;;;;;;;19.70;12.40;;;;;;;-0.33;96.13;97286.77;103069;1256;138839;-79
2024/01/18 01:10:44;;;;;;;18.40;12.40;;;;;;;-0.28;96.13;97287.27;103167;1256;97852;-80
2024/01/18 01:13:10;;;;;;;20.50;12.80;;;;;;;-0.26;95.93;97283.09;103163;1260;108359;-80
2024/01/18 01:15:37;;;;;;;22.70;14.70;;;;;;;-0.24;96.12;97282.50;103067;1256;138996;-79
2024/01/18 01:18:05;;;;;;;19.20;12.50;;;;;;;-0.24;95.81;97290.70;103196;1256;111385;-79
2024/01/18 01:20:32;;;;;;;19.30;12.90;;;;;;;-0.25;96.12;97288.34;104259;1259;139208;-80
2024/01/18 01:22:58;;;;;;;18.80;12.60;;;;;;;-0.25;95.75;97289.18;103350;1255;98352;-80
2024/01/18 01:25:25;;;;;;;19.50;12.10;;;;;;;-0.23;95.87;97293.38;103216;1256;108554;-80
2024/01/18 01:27:52;;;;;;;20.00;12.20;;;;;;;-0.21;96.03;97288.86;103159;1255;138885;-79
2024/01/18 01:30:19;;;;;;;19.50;12.70;;;;;;;-0.18;95.90;97287.93;103282;1256;111012;-80
2024/01/18 01:32:46;;;;;;;17.70;12.10;;;;;;;-0.16;96.27;97284.08;103112;1256;138533;-79
2024/01/18 01:35:14;;;;;;;19.50;12.20;;;;;;;-0.14;95.95;97285.89;103246;1256;97798;-80
2024/01/18 01:37:41;;;;;;;21.00;12.30;;;;;;;-0.11;95.96;97292.11;103705;1256;107629;-79
2024/01/18 01:40:09;;;;;;;19.20;12.80;;;;;;;-0.08;96.00;97284.81;103133;1256;138681;-79
2024/01/18 01:42:36;;;;;;;15.90;11.40;;;;;;;-0.06;95.50;97283.35;103437;1256;110494;-79
2024/01/18 01:45:04;;;;;;;18.60;12.00;;;;;;;-0.03;95.50;97276.41;103084;1258;139449;-79
2024/01/18 01:47:31;;;;;;;19.80;12.20;;;;;;;0.02;95.51;97272.50;103387;1256;98776;-79
2024/01/18 01:49:58;;;;;;;19.10;11.80;;;;;;;0.07;95.39;97273.48;102932;1256;108717;-78
2024/01/18 01:52:26;;;;;;;20.00;13.00;;;;;;;0.11;95.17;97266.34;103059;1260;97748;-78
2024/01/18 01:54:53;;;;;;;20.20;13.10;;;;;;;0.12;95.05;97254.66;103168;1256;110414;-79
2024/01/18 01:57:21;;;;;;;20.30;13.20;;;;;;;0.14;94.88;97253.25;103064;1256;137858;-77
2024/01/18 01:59:48;;;;;;;18.70;12.50;;;;;;;0.14;95.00;97262.46;104541;1255;96076;-79
2024/01/18 02:02:17;;;;;;;19.50;12.00;;;;;;;0.15;94.86;97260.21;103644;1256;139390;-79
2024/01/18 02:04:45;;;;;;;18.60;12.00;;;;;;;0.16;94.86;97258.80;103151;1256;97694;-79
2024/01/18 02:07:13;;;;;;;15.60;10.60;;;;;;;0.17;94.99;97258.23;103211;1256;110609;-79
2024/01/18 02:09:41;;;;;;;19.40;12.40;;;;;;;0.18;94.70;97254.11;103020;1255;139154;-77
2024/01/18 02:12:10;;;;;;;21.30;10.70;;;;;;;0.22;94.86;97251.08;103098;1256;97820;-79
2024/01/18 02:14:37;;;;;;;18.60;10.80;;;;;;;0.26;94.71;97251.91;103031;1256;141981;-78
2024/01/18 02:17:06;;;;;;;17.00;11.30;;;;;;;0.30;94.65;97246.61;103048;1259;97816;-78
2024/01/18 02:19:33;;;;;;;17.40;11.10;;;;;;;0.34;94.61;97245.80;102977;1256;111484;-77
2024/01/18 02:22:02;;;;;;;19.00;11.40;;;;;;;0.37;94.39;97240.73;102851;1259;138656;-77
2024/01/18 02:24:34;;;;;;;16.10;11.40;;;;;;;0.41;94.34;97243.29;103099;1260;98079;-77
2024/01/18 02:27:00;;;;;;;19.60;11.50;;;;;;;0.43;94.41;97241.35;102929;1257;138273;-78
2024/01/18 02:29:27;;;;;;;18.20;11.30;;;;;;;0.45;94.31;97234.95;102305;1257;1003458;-78
2024/01/18 02:31:54;;;;;;;16.50;11.00;;;;;;;0.48;94.42;97237.22;103134;1256;110087;-77
2024/01/18 02:34:21;;;;;;;16.00;11.00;;;;;;;0.48;94.26;97239.74;102988;1260;138182;-77
2024/01/18 02:36:48;;;;;;;17.30;11.10;;;;;;;0.52;94.20;97242.34;103120;1260;97858;-76
2024/01/18 02:39:15;;;;;;;16.10;11.50;;;;;;;0.55;94.16;97237.30;103016;1256;138195;-78
2024/01/18 02:41:42;;;;;;;18.50;11.90;;;;;;;0.55;93.97;97240.52;103063;1260;97780;-77
2024/01/18 02:44:09;;;;;;;18.80;11.70;;;;;;;0.57;94.02;97233.58;102994;1258;140379;-75
2024/01/18 02:46:36;;;;;;;16.20;11.40;;;;;;;0.60;94.21;97234.52;102844;1256;107489;-75
2024/01/18 02:49:03;;;;;;;18.70;11.50;;;;;;;0.63;94.15;97234.76;103098;1258;97878;-76
2024/01/18 02:51:32;;;;;;;20.90;12.50;;;;;;;0.66;93.91;97239.08;102974;1256;138334;-76
2024/01/18 02:53:59;;;;;;;18.00;11.90;;;;;;;0.70;93.94;97237.17;103065;1255;97843;-76
2024/01/18 02:56:26;;;;;;;18.70;12.50;;;;;;;0.75;94.00;97237.16;103019;1258;138868;-76
2024/01/18 02:58:52;;;;;;;18.70;11.70;;;;;;;0.79;93.95;97240.92;103107;1256;107326;-76
2024/01/18 03:01:19;;;;;;;19.00;11.90;;;;;;;0.84;93.92;97239.50;103203;1257;97900;-76
2024/01/18 03:03:46;;;;;;;17.10;11.70;;;;;;;0.89;93.76;97236.41;103050;1256;139332;-75
2024/01/18 03:06:13;;;;;;;19.90;13.00;;;;;;;0.92;93.67;97237.84;103152;1256;97946;-76
2024/01/18 03:08:40;;;;;;;21.10;13.50;;;;;;;0.94;93.51;97244.40;103005;1256;137731;-75
2024/01/18 03:11:07;;;;;;;18.10;13.10;;;;;;;0.97;93.43;97245.97;103145;1256;107012;-76
2024/01/18 03:13:34;;;;;;;20.30;13.20;;;;;;;0.98;93.40;97250.75;103200;1258;98406;-75
2024/01/18 03:16:01;;;;;;;17.60;12.60;;;;;;;0.96;93.30;97250.14;103048;1258;138251;-75
2024/01/18 03:18:27;;;;;;;19.50;12.10;;;;;;;0.94;93.27;97245.59;102510;1256;1003078;-75
2024/01/18 03:20:55;;;;;;;21.50;13.70;;;;;;;0.93;93.43;97241.20;103037;1256;138567;-76
2024/01/18 03:23:22;;;;;;;18.10;12.30;;;;;;;0.94;93.59;97242.17;103147;1254;109553;-75
2024/01/18 03:25:49;;;;;;;17.40;12.60;;;;;;;0.97;93.70;97249.21;103207;1255;98423;-76
2024/01/18 03:28:15;;;;;;;17.60;12.40;;;;;;;1.00;93.73;97255.44;103122;1255;138163;-76
2024/01/18 03:30:42;;;;;;;20.30;12.00;;;;;;;1.01;93.64;97256.94;103139;1255;97838;-75
2024/01/18 03:33:09;;;;;;;21.30;12.60;;;;;;;1.05;93.82;97263.59;103057;1256;138222;-75
2024/01/18 03:35:37;;;;;;;20.50;12.70;;;;;;;1.07;93.79;97261.29;103153;1254;107019;-75
2024/01/18 03:38:04;;;;;;;18.00;12.50;;;;;;;1.07;93.82;97262.34;103240;1256;98318;-75
2024/01/18 03:40:30;;;;;;;18.40;13.10;;;;;;;1.02;94.19;97259.27;103233;1258;106873;-74
2024/01/18 03:42:57;;;;;;;19.30;12.00;;;;;;;1.02;94.03;97265.11;103162;1255;97782;-75
2024/01/18 03:45:24;;;;;;;22.50;12.70;;;;;;;1.06;94.19;97276.40;103098;1256;139352;-74
2024/01/18 03:47:51;;;;;;;19.30;12.90;;;;;;;1.13;94.50;97273.54;103124;1258;107061;-73
2024/01/18 03:50:19;;;;;;;19.70;12.60;;;;;;;1.16;94.27;97266.77;103185;1258;139118;-74
2024/01/18 03:52:46;;;;;;;19.30;13.10;;;;;;;1.17;94.23;97274.55;103659;1256;106745;-73
2024/01/18 03:55:12;;;;;;;18.00;13.30;;;;;;;1.17;94.05;97281.91;102564;1256;1003537;-73
2024/01/18 03:57:40;;;;;;;18.60;13.00;;;;;;;1.23;94.31;97287.98;103136;1256;140748;-73
2024/01/18 04:00:11;;;;;;;20.80;12.70;;;;;;;1.35;94.80;97285.46;103349;1258;107979;-75
2024/01/18 04:02:39;;;;;;;21.80;14.20;;;;;;;1.41;94.58;97280.38;103844;1258;138847;-74
2024/01/18 04:05:07;;;;;;;21.50;14.30;;;;;;;1.41;94.29;97285.85;103182;1255;109311;-75
2024/01/18 04:07:35;;;;;;;22.70;14.70;;;;;;;1.39;94.22;97284.92;103302;1256;97810;-74
2024/01/18 04:10:02;;;;;;;21.50;15.40;;;;;;;1.34;94.12;97284.29;103099;1256;137524;-75
2024/01/18 04:12:29;;;;;;;22.50;15.70;;;;;;;1.29;94.29;97280.41;103121;1256;108442;-74
2024/01/18 11:17:21;;;;;;;59.00;36.50;;;;;;;1.37;88.29;97747.78;103036;1260;108216;-73
2024/01/18 11:19:49;;;;;;;60.60;37.70;;;;;;;1.31;87.95;97749.20;102883;1257;98013;-72
2024/01/18 11:22:27;;;;;;;56.10;37.00;;;;;;;1.25;87.76;97739.62;102735;1261;138121;-75
2024/01/18 11:24:54;;;;;;;57.20;36.70;;;;;;;1.19;87.44;97738.80;103277;1257;106802;-73
2024/01/18 11:27:22;;;;;;;56.80;36.00;;;;;;;1.12;87.41;97735.98;102823;1257;138523;-73
2024/01/18 11:29:50;;;;;;;51.60;34.30;;;;;;;1.09;87.61;97748.91;102905;1258;106554;-73
2024/01/18 11:32:19;;;;;;;54.90;35.40;;;;;;;1.10;87.57;97744.45;102991;1261;97967;-72
2024/01/18 11:34:49;;;;;;;58.80;37.60;;;;;;;1.12;87.64;97750.70;103118;1263;137813;-72
2024/01/18 11:37:18;;;;;;;58.90;37.60;;;;;;;1.13;87.62;97756.98;103344;1257;107661;-73
2024/01/18 11:39:59;;;;;;;57.20;37.40;;;;;;;1.14;87.31;97762.77;102808;1263;137658;-74
2024/01/18 11:42:28;;;;;;;60.30;38.60;;;;;;;1.09;86.82;97767.90;103083;1261;107807;-73
2024/01/18 11:45:00;;;;;;;57.90;39.10;;;;;;;1.07;86.89;97772.06;102731;1262;97765;-81
2024/01/18 11:47:31;;;;;;;59.30;39.00;;;;;;;1.07;86.97;97775.66;104034;1257;111232;-74
2024/01/18 11:49:59;;;;;;;55.90;37.10;;;;;;;1.03;86.75;97775.64;104152;1257;107654;-75
2024/01/18 11:52:28;;;;;;;60.90;39.80;;;;;;;1.00;86.71;97780.02;103365;1261;137726;-73
2024/01/18 11:54:56;;;;;;;58.30;37.00;;;;;;;0.97;86.63;97785.95;102632;1260;108813;-72
2024/01/18 11:57:25;;;;;;;53.70;34.60;;;;;;;0.93;86.54;97794.45;102942;1258;138553;-72
2024/01/18 11:59:54;;;;;;;56.00;34.10;;;;;;;0.90;86.58;97800.02;104210;1260;110705;-74
2024/01/18 12:02:22;;;;;;;52.50;34.50;;;;;;;0.91;86.52;97809.73;102831;1260;106697;-77
2024/01/18 12:04:50;;;;;;;54.30;36.00;;;;;;;0.96;86.81;97814.20;102802;1257;138079;-76
2024/01/18 12:07:20;;;;;;;55.70;37.40;;;;;;;0.99;86.42;97814.78;102853;1257;107123;-79
2024/01/18 12:09:48;;;;;;;58.60;38.90;;;;;;;1.03;86.33;97816.35;102832;1260;139690;-78
2024/01/18 12:12:16;;;;;;;60.10;38.10;;;;;;;1.05;86.19;97811.64;102950;1257;112283;-77
2024/01/18 12:14:44;;;;;;;64.40;41.40;;;;;;;1.07;86.20;97811.09;102786;1264;106173;-78
2024/01/18 12:17:13;;;;;;;63.20;40.40;;;;;;;1.09;86.27;97807.27;102807;1257;137926;-79
2024/01/18 12:19:41;;;;;;;62.90;42.10;;;;;;;1.11;86.17;97806.52;103700;1257;107370;-79
2024/01/18 12:22:10;;;;;;;64.10;42.20;;;;;;;1.10;86.12;97806.40;103136;1260;139297;-78
2024/01/18 12:24:37;;;;;;;66.30;41.10;;;;;;;1.07;86.16;97801.33;102911;1261;111857;-78
2024/01/18 12:27:05;;;;;;;60.20;38.90;;;;;;;1.09;86.20;97805.06;103734;1257;139756;-78
2024/01/18 12:29:33;;;;;;;58.60;36.30;;;;;;;1.12;86.05;97804.96;102767;1261;98434;-77
2024/01/18 12:32:00;;;;;;;58.30;36.70;;;;;;;1.17;86.08;97792.95;102846;1261;108846;-79
2024/01/18 12:34:29;;;;;;;62.50;40.70;;;;;;;1.28;86.02;97788.30;103898;1258;139389;-80
2024/01/18 12:36:57;;;;;;;61.00;38.50;;;;;;;1.40;85.75;97792.00;102849;1258;111330;-80
2024/01/18 12:39:24;;;;;;;57.00;38.30;;;;;;;1.45;85.32;97786.52;103265;1257;138752;-79
2024/01/18 12:41:53;;;;;;;58.90;39.30;;;;;;;1.52;85.34;97791.92;103751;1257;98066;-78
2024/01/18 12:44:20;;;;;;;59.00;39.60;;;;;;;1.58;85.01;97799.42;102866;1258;107389;-80
2024/01/18 12:49:31;;;;;;;59.90;40.50;;;;;;;1.66;84.44;97808.92;100577;1288;635969;-80
2024/01/18 12:52:01;;;;;;;60.00;39.70;;;;;;;1.63;84.28;97809.34;102471;1266;137400;-80
2024/01/18 12:54:29;;;;;;;60.20;40.70;;;;;;;1.60;83.88;97819.23;102420;1269;106927;-80
2024/01/18 12:57:04;;;;;;;62.10;39.80;;;;;;;1.53;83.58;97819.48;102507;1266;94466;-80
2024/01/18 12:59:32;;;;;;;61.10;41.50;;;;;;;1.46;83.47;97816.13;102529;1267;108403;-77
2024/01/18 13:01:59;;;;;;;67.00;43.10;;;;;;;1.44;83.68;97803.36;101680;1266;1002713;-80
2024/01/18 13:04:27;;;;;;;62.30;40.20;;;;;;;1.41;84.00;97804.96;102382;1263;136758;-79
2024/01/18 13:06:56;;;;;;;65.50;40.50;;;;;;;1.44;84.05;97808.83;101925;1263;1003103;-80
2024/01/18 13:09:30;;;;;;;55.20;37.20;;;;;;;1.44;83.79;97815.15;102527;1263;138675;-77
2024/01/18 13:11:59;;;;;;;57.30;37.30;;;;;;;1.45;83.74;97813.94;102490;1262;106436;-79
2024/01/18 13:14:27;;;;;;;56.60;38.90;;;;;;;1.53;83.76;97825.98;102626;1265;107718;-80
2024/01/18 13:16:55;;;;;;;58.80;40.30;;;;;;;1.54;83.56;97830.21;103041;1259;138247;-81
2024/01/18 13:19:22;;;;;;;59.40;39.80;;;;;;;1.56;83.35;97826.91;103031;1259;108685;-81
2024/01/18 13:21:52;;;;;;;64.30;41.30;;;;;;;1.57;83.36;97833.02;103077;1259;137222;-82
2024/01/18 13:24:19;;;;;;;62.40;41.90;;;;;;;1.60;83.39;97835.32;103614;1257;108691;-82
2024/01/18 13:26:47;;;;;;;61.50;41.10;;;;;;;1.57;82.97;97837.14;103158;1259;107414;-79
2024/01/18 13:29:15;;;;;;;60.70;41.50;;;;;;;1.55;82.86;97854.15;103609;1256;136812;-78
2024/01/18 13:31:43;;;;;;;62.20;41.70;;;;;;;1.50;82.76;97856.88;103281;1257;108080;-79
2024/01/18 13:34:10;;;;;;;60.70;40.90;;;;;;;1.46;82.69;97855.52;104072;1256;137416;-79
2024/01/18 13:36:37;;;;;;;65.70;42.90;;;;;;;1.43;82.59;97856.28;103815;1256;109602;-78
2024/01/18 13:39:06;;;;;;;64.70;42.20;;;;;;;1.39;82.73;97854.02;103173;1257;108174;-78
2024/01/18 13:41:33;;;;;;;63.50;40.50;;;;;;;1.35;82.83;97857.90;102673;1256;1002480;-78
2024/01/18 13:44:01;;;;;;;62.60;40.30;;;;;;;1.31;82.89;97864.42;103587;1256;107681;-77
2024/01/18 13:46:28;;;;;;;59.90;38.80;;;;;;;1.29;83.05;97871.14;102955;1260;137905;-80
2024/01/18 13:48:55;;;;;;;59.90;38.00;;;;;;;1.32;83.19;97879.27;103103;1259;107828;-76
2024/01/18 13:51:22;;;;;;;58.30;40.10;;;;;;;1.35;82.89;97888.58;102842;1259;138443;-75
2024/01/18 13:53:50;;;;;;;60.60;40.30;;;;;;;1.36;82.78;97895.55;103005;1257;95100;-77
2024/01/18 13:56:17;;;;;;;64.20;42.20;;;;;;;1.34;82.53;97901.09;104144;1256;108244;-76
2024/01/18 13:58:44;;;;;;;63.70;41.70;;;;;;;1.31;82.35;97899.98;104346;1257;138988;-74
2024/01/18 14:01:11;;;;;;;71.90;44.30;;;;;;;1.29;82.69;97899.91;104494;1256;107594;-74
2024/01/18 14:03:39;;;;;;;64.80;42.70;;;;;;;1.27;82.26;97901.52;103198;1257;137706;-74
2024/01/18 14:06:07;;;;;;;68.40;46.00;;;;;;;1.19;82.14;97928.79;104508;1256;93170;-74
2024/01/18 14:08:33;;;;;;;67.50;46.30;;;;;;;1.12;82.25;97944.77;103612;1256;107780;-73
2024/01/18 14:11:00;;;;;;;69.00;46.50;;;;;;;1.08;82.20;97959.09;103053;1260;137763;-74
2024/01/18 14:13:28;;;;;;;70.40;46.50;;;;;;;1.00;82.33;97951.14;103173;1260;108902;-74
2024/01/18 14:15:54;;;;;;;74.20;47.70;;;;;;;0.95;82.59;97953.66;103198;1261;137055;-75
2024/01/18 14:18:21;;;;;;;74.10;46.20;;;;;;;0.86;82.40;97962.48;103315;1257;95027;-74
2024/01/18 14:20:49;;;;;;;70.60;45.00;;;;;;;0.83;82.53;97956.92;103622;1256;106725;-75
2024/01/18 14:23:16;;;;;;;70.40;46.40;;;;;;;0.82;82.77;97941.40;103461;1256;1002989;-75
2024/01/18 14:25:42;;;;;;;76.40;48.70;;;;;;;0.81;82.70;97928.77;101684;1257;1003724;-75
2024/01/18 14:28:09;;;;;;;70.10;46.90;;;;;;;0.83;82.91;97930.23;103023;1259;136404;-76
2024/01/18 14:30:37;;;;;;;68.20;45.40;;;;;;;0.83;82.83;97941.02;103238;1255;95196;-75
2024/01/18 14:33:05;;;;;;;73.50;46.40;;;;;;;0.81;82.58;97946.73;103129;1257;108695;-75
2024/01/18 14:35:33;;;;;;;73.80;47.20;;;;;;;0.77;82.60;97960.71;103139;1258;95105;-75
2024/01/18 14:37:59;;;;;;;74.90;48.30;;;;;;;0.70;82.61;97973.73;103230;1259;108241;-75
2024/01/18 14:40:26;;;;;;;74.10;49.00;;;;;;;0.65;82.78;97978.67;102989;1257;137319;-75
2024/01/18 14:42:53;;;;;;;74.70;49.60;;;;;;;0.65;82.98;97976.47;103079;1256;95849;-74
2024/01/18 14:45:20;;;;;;;73.60;47.90;;;;;;;0.60;83.09;97990.26;103015;1255;137152;-77
2024/01/18 14:47:49;;;;;;;74.60;48.50;;;;;;;0.58;83.18;98000.06;103157;1257;95137;-77
2024/01/18 14:50:16;;;;;;;73.00;47.10;;;;;;;0.53;83.17;98012.70;103373;1257;107938;-77
2024/01/18 14:52:43;;;;;;;70.40;45.30;;;;;;;0.51;83.35;98017.34;102987;1261;137999;-75
2024/01/18 14:55:12;;;;;;;65.50;43.10;;;;;;;0.51;83.61;98014.27;103552;1256;96785;-77
2024/01/18 14:57:39;;;;;;;72.50;44.80;;;;;;;0.52;83.84;98018.52;103613;1257;136572;-77
2024/01/18 15:00:13;;;;;;;70.20;45.80;;;;;;;0.55;83.74;98026.14;103301;1255;95093;-78
2024/01/18 15:02:41;;;;;;;73.10;48.20;;;;;;;0.56;83.50;98024.59;103216;1259;107995;-78
2024/01/18 15:05:10;;;;;;;82.70;54.20;;;;;;;0.59;83.60;98022.61;103625;1259;137879;-75
2024/01/18 15:07:37;;;;;;;82.60;53.60;;;;;;;0.60;83.46;98023.44;103135;1257;94984;-77
2024/01/18 15:10:05;;;;;;;77.00;49.10;;;;;;;0.58;83.05;98032.23;103071;1256;137131;-77
2024/01/18 15:12:32;;;;;;;73.70;47.40;;;;;;;0.52;82.89;98032.04;103364;1256;95862;-73
2024/01/18 15:15:00;;;;;;;75.80;48.20;;;;;;;0.41;82.38;98034.05;103209;1257;108778;-76
2024/01/18 15:17:27;;;;;;;71.00;47.30;;;;;;;0.34;82.36;98037.98;103054;1259;136392;-75
2024/01/18 15:19:55;;;;;;;81.20;50.80;;;;;;;0.31;82.70;98052.09;102469;1254;1002969;-78
2024/01/18 15:22:23;;;;;;;74.00;48.70;;;;;;;0.27;82.76;98057.32;103153;1256;137201;-72
2024/01/18 15:24:49;;;;;;;72.90;46.70;;;;;;;0.22;82.73;98053.36;103197;1257;94999;-75
2024/01/18 15:27:16;;;;;;;73.60;45.30;;;;;;;0.17;82.83;98042.88;103027;1257;138654;-74
2024/01/18 15:29:44;;;;;;;66.10;42.70;;;;;;;0.13;82.63;98043.32;103129;1255;107456;-77
2024/01/18 15:32:10;;;;;;;68.50;43.00;;;;;;;0.12;82.66;98040.45;103147;1257;95507;-76
2024/01/18 15:34:37;;;;;;;71.70;45.30;;;;;;;0.12;82.61;98043.86;103172;1256;137134;-77
2024/01/18 15:37:05;;;;;;;70.10;45.70;;;;;;;0.12;82.75;98045.08;103214;1257;95561;-79
2024/01/18 15:39:32;;;;;;;74.10;47.70;;;;;;;0.17;82.72;98061.16;103099;1257;137122;-80
2024/01/18 15:41:59;;;;;;;77.40;47.70;;;;;;;0.16;82.86;98065.80;103129;1259;107779;-77
2024/01/18 15:44:29;;;;;;;70.70;47.10;;;;;;;0.19;83.09;98062.85;103223;1259;95182;-78
2024/01/18 15:47:03;;;;;;;74.70;48.00;;;;;;;0.20;83.02;98065.36;103045;1259;137685;-82
2024/01/18 15:49:31;;;;;;;75.40;49.00;;;;;;;0.23;82.96;98075.05;103198;1256;95124;-84
2024/01/18 15:51:58;;;;;;;76.10;48.40;;;;;;;0.21;82.91;98081.08;103123;1256;135950;-77
2024/01/18 15:54:25;;;;;;;77.40;49.70;;;;;;;0.17;82.57;98080.98;103157;1256;106791;-82
2024/01/18 15:56:52;;;;;;;78.60;51.10;;;;;;;0.14;82.83;98080.39;103100;1254;95202;-83
2024/01/18 15:59:19;;;;;;;70.10;46.10;;;;;;;0.12;82.96;98081.30;103177;1254;137147;-89
2024/01/18 16:01:46;;;;;;;75.40;47.30;;;;;;;0.06;82.99;98078.04;103195;1256;94979;-82
2024/01/18 16:04:13;;;;;;;69.80;43.30;;;;;;;0.07;83.23;98088.27;102880;1259;137747;-73
2024/01/18 16:06:40;;;;;;;68.30;43.30;;;;;;;0.06;83.16;98098.69;103235;1257;106757;-82
2024/01/18 16:09:07;;;;;;;70.30;45.60;;;;;;;0.11;83.28;98097.05;103246;1257;95199;-81
2024/01/18 16:11:34;;;;;;;71.60;46.90;;;;;;;0.13;83.19;98098.52;103252;1254;108354;-84
2024/01/18 16:14:01;;;;;;;73.00;48.30;;;;;;;0.16;83.15;98104.09;103272;1257;95124;-82
2024/01/18 16:16:28;;;;;;;71.50;46.80;;;;;;;0.16;83.14;98099.46;103163;1257;137091;-83
2024/01/18 16:18:56;;;;;;;74.80;49.30;;;;;;;0.16;82.92;98114.67;103285;1257;107298;-87
2024/01/18 16:21:23;;;;;;;74.20;49.60;;;;;;;0.13;83.03;98123.80;103185;1257;137483;-81
2024/01/18 16:23:51;;;;;;;78.90;50.90;;;;;;;0.15;83.07;98129.55;103022;1257;107668;-79
2024/01/18 16:26:18;;;;;;;74.10;49.00;;;;;;;0.13;83.03;98126.72;103267;1259;94979;-77
2024/01/18 16:28:45;;;;;;;81.10;51.30;;;;;;;0.09;83.03;98121.00;102887;1257;138469;-73
2024/01/18 16:31:12;;;;;;;83.80;53.50;;;;;;;0.06;83.16;98131.17;103199;1257;107281;-70
2024/01/18 16:33:39;;;;;;;76.70;50.60;;;;;;;0.01;83.08;98136.75;102909;1259;137526;-75
2024/01/18 16:36:07;;;;;;;102.90;63.70;;;;;;;-0.05;83.14;98134.14;102981;1260;106534;-75
2024/01/18 16:38:34;;;;;;;76.20;47.70;;;;;;;-0.07;83.36;98139.30;103116;1257;95199;-74
2024/01/18 16:41:02;;;;;;;74.40;46.60;;;;;;;-0.09;83.40;98151.66;102891;1260;138157;-75
2024/01/18 16:43:29;;;;;;;75.70;48.70;;;;;;;-0.10;83.16;98153.41;103050;1259;108505;-74
2024/01/18 16:45:56;;;;;;;76.80;51.00;;;;;;;-0.11;83.21;98148.83;103076;1256;138257;-77
2024/01/18 16:48:23;;;;;;;79.20;50.80;;;;;;;-0.09;83.44;98150.98;103075;1257;107485;-80
2024/01/18 16:50:50;;;;;;;79.20;53.00;;;;;;;-0.06;83.73;98155.68;103388;1253;95161;-79
2024/01/18 16:53:17;;;;;;;79.70;51.10;;;;;;;0.00;83.84;98159.33;103267;1253;137224;-83
2024/01/18 16:55:44;;;;;;;77.80;50.30;;;;;;;0.01;83.81;98165.98;103276;1252;105718;-86
2024/01/18 16:58:12;;;;;;;79.10;50.30;;;;;;;-0.02;83.63;98173.86;103270;1256;137715;-83
2024/01/18 17:00:39;;;;;;;80.60;51.60;;;;;;;-0.05;83.65;98177.72;103354;1252;1002879;-84
2024/01/18 17:03:06;;;;;;;80.70;48.60;;;;;;;-0.14;83.32;98184.94;104784;1253;94554;-78
2024/01/18 17:05:33;;;;;;;71.40;46.80;;;;;;;-0.20;83.62;98185.04;103716;1252;1003200;-74
2024/01/18 17:08:01;;;;;;;73.80;46.00;;;;;;;-0.22;83.83;98185.41;104063;1253;106876;-73
2024/01/18 17:10:28;;;;;;;73.40;45.50;;;;;;;-0.22;83.88;98186.11;102563;1253;1003606;-71
2024/01/18 17:12:54;;;;;;;75.60;48.70;;;;;;;-0.20;84.00;98195.97;104316;1253;106745;-73
2024/01/18 17:15:21;;;;;;;73.50;47.40;;;;;;;-0.18;84.08;98200.89;103332;1253;137505;-76
2024/01/18 17:17:49;;;;;;;77.30;49.90;;;;;;;-0.17;84.09;98199.34;103331;1253;109093;-74
2024/01/18 17:20:16;;;;;;;79.20;51.70;;;;;;;-0.17;84.28;98203.95;103280;1252;107192;-73
2024/01/18 17:22:43;;;;;;;81.70;51.60;;;;;;;-0.16;84.25;98208.19;103073;1254;137675;-76
2024/01/18 17:25:10;;;;;;;80.20;52.60;;;;;;;-0.19;84.13;98216.45;103419;1253;106203;-81
2024/01/18 17:27:37;;;;;;;85.90;55.30;;;;;;;-0.23;84.03;98220.63;103120;1253;137692;-76
2024/01/18 17:30:05;;;;;;;83.80;53.60;;;;;;;-0.28;84.22;98219.20;103448;1255;108539;-76
2024/01/18 17:32:32;;;;;;;84.10;50.70;;;;;;;-0.37;84.18;98224.17;103353;1253;107724;-78
2024/01/18 17:34:59;;;;;;;79.20;47.50;;;;;;;-0.43;84.32;98228.21;103240;1256;138752;-78
2024/01/18 17:37:26;;;;;;;80.40;48.50;;;;;;;-0.44;84.73;98230.12;103331;1253;107842;-74
2024/01/18 17:39:53;;;;;;;74.60;46.70;;;;;;;-0.43;85.03;98232.99;103291;1252;138342;-77
2024/01/18 17:42:20;;;;;;;75.40;46.70;;;;;;;-0.38;85.38;98238.55;103426;1255;109624;-77
2024/01/18 17:44:47;;;;;;;77.20;49.80;;;;;;;-0.30;85.60;98245.90;103236;1252;109441;-78
2024/01/18 17:47:15;;;;;;;77.50;51.70;;;;;;;-0.25;85.46;98247.49;103216;1256;137866;-78
2024/01/18 17:49:42;;;;;;;80.30;52.40;;;;;;;-0.22;85.50;98249.14;103298;1250;108110;-78
2024/01/18 17:52:09;;;;;;;85.20;54.50;;;;;;;-0.20;85.55;98253.17;103256;1253;137648;-76
2024/01/18 17:54:37;;;;;;;80.60;52.10;;;;;;;-0.18;85.43;98256.23;103394;1253;110173;-75
2024/01/18 17:57:04;;;;;;;81.20;52.30;;;;;;;-0.20;85.40;98264.13;103200;1253;107392;-75
2024/01/18 17:59:31;;;;;;;81.20;53.00;;;;;;;-0.21;85.46;98268.41;103290;1252;137906;-82
2024/01/18 18:01:58;;;;;;;81.20;50.50;;;;;;;-0.25;85.44;98268.34;103360;1256;108650;-81
2024/01/18 18:04:25;;;;;;;71.20;46.50;;;;;;;-0.24;85.65;98274.80;103268;1253;137093;-85
2024/01/18 18:06:54;;;;;;;76.90;46.70;;;;;;;-0.23;85.70;98282.81;103367;1253;110455;-73
2024/01/18 18:09:20;;;;;;;74.90;46.30;;;;;;;-0.22;85.90;98287.55;103203;1254;138448;-73
2024/01/18 18:11:47;;;;;;;72.80;47.40;;;;;;;-0.16;86.14;98291.37;103358;1256;96739;-73
2024/01/18 18:14:15;;;;;;;77.50;50.40;;;;;;;-0.11;85.87;98293.50;103402;1253;107392;-71